8OA9 weather

Margos Sky Ranch Airport
Seville, Ohio, United States

Public forecast

Using degrees Fahrenheit for public forecast. Weather courtesy of forecast.io.

METAR (pilot weather report)

Closest report is Wayne County Airport, 10.7 nm (19.8 km) SSW. Retrieved 2019/03/19 19:56 UTC (48 minutes ago):

KBJJ 191956Z AUTO 29006KT 10SM FEW048 OVC065 06/M04 A3039 RMK AO2 SLP302 T00611039

TAF (pilot weather forecast)

Closest forecast is Akron Canton Regional Airport, 18.6 nm (34.5 km) ESE. Retrieved 2019/03/19 18:22 UTC (2 hours ago):

TAF KCAK 191720Z 1918/2018 25010KT P6SM SCT040 TEMPO 1918/1922 BKN040 FM200100 17003KT P6SM SCT250 FM201500 19010KT P6SM BKN250